createdAt,value
2017-10-11T00:00:04.100Z,1007.56
2017-10-11T00:00:44.654Z,1007.57
2017-10-11T00:01:25.159Z,1007.57
2017-10-11T00:02:05.736Z,1007.54
2017-10-11T00:02:46.240Z,1007.59
2017-10-11T00:03:26.786Z,1007.58
2017-10-11T00:04:07.449Z,1007.57
2017-10-11T00:04:47.971Z,1007.58
2017-10-11T00:05:28.521Z,1007.55
2017-10-11T00:06:09.098Z,1007.56
2017-10-11T00:06:49.589Z,1007.55
2017-10-11T00:07:30.104Z,1007.57
2017-10-11T00:08:10.725Z,1007.6
2017-10-11T00:08:51.177Z,1007.59
2017-10-11T00:09:31.823Z,1007.61
2017-10-11T00:10:12.368Z,1007.6
2017-10-11T00:10:52.875Z,1007.58
2017-10-11T00:11:33.412Z,1007.53
2017-10-11T00:12:14.006Z,1007.56
2017-10-11T00:12:54.537Z,1007.52
2017-10-11T00:13:35.084Z,1007.52
2017-10-11T00:14:15.635Z,1007.52
2017-10-11T00:14:56.148Z,1007.49
2017-10-11T00:15:36.725Z,1007.45
2017-10-11T00:16:17.336Z,1007.43
2017-10-11T00:16:57.782Z,1007.45
2017-10-11T00:17:38.318Z,1007.42
2017-10-11T00:18:18.852Z,1007.43
2017-10-11T00:18:59.455Z,1007.4
2017-10-11T00:19:39.979Z,1007.39
2017-10-11T00:20:20.548Z,1007.37
2017-10-11T00:21:01.091Z,1007.4
2017-10-11T00:21:41.667Z,1007.41
2017-10-11T00:22:22.124Z,1007.41
2017-10-11T00:23:02.679Z,1007.39
2017-10-11T00:23:43.212Z,1007.42
2017-10-11T00:24:23.736Z,1007.42
2017-10-11T00:25:04.312Z,1007.39
2017-10-11T00:25:44.773Z,1007.44
2017-10-11T00:26:25.332Z,1007.47
2017-10-11T00:27:05.850Z,1007.44
2017-10-11T00:27:46.392Z,1007.44
2017-10-11T00:28:26.958Z,1007.45
2017-10-11T00:29:07.492Z,1007.4
2017-10-11T00:29:48.018Z,1007.43
2017-10-11T00:30:28.539Z,1007.38
2017-10-11T00:31:09.097Z,1007.39
2017-10-11T00:31:49.634Z,1007.35
2017-10-11T00:32:30.191Z,1007.35
2017-10-11T00:33:10.723Z,1007.33
2017-10-11T00:33:51.256Z,1007.31
2017-10-11T00:34:31.773Z,1007.34
2017-10-11T00:35:12.293Z,1007.38
2017-10-11T00:35:52.835Z,1007.39
2017-10-11T00:36:33.388Z,1007.36
2017-10-11T00:37:13.950Z,1007.34
2017-10-11T00:37:54.472Z,1007.41
2017-10-11T00:38:34.983Z,1007.4
2017-10-11T00:39:15.504Z,1007.38
2017-10-11T00:39:56.033Z,1007.38
2017-10-11T00:40:36.579Z,1007.37
2017-10-11T00:41:17.101Z,1007.33
2017-10-11T00:41:57.682Z,1007.38
2017-10-11T00:42:38.198Z,1007.38
2017-10-11T00:43:18.744Z,1007.37
2017-10-11T00:43:59.261Z,1007.35
2017-10-11T00:44:39.797Z,1007.35
2017-10-11T00:45:20.335Z,1007.37
2017-10-11T00:46:00.913Z,1007.34
2017-10-11T00:46:41.436Z,1007.35
2017-10-11T00:47:21.955Z,1007.35
2017-10-11T00:48:02.522Z,1007.35
2017-10-11T00:48:43.017Z,1007.35
2017-10-11T00:49:23.596Z,1007.36
2017-10-11T00:50:04.136Z,1007.34
2017-10-11T00:50:44.715Z,1007.37
2017-10-11T00:51:25.302Z,1007.37
2017-10-11T00:52:05.799Z,1007.32
2017-10-11T00:52:46.309Z,1007.29
2017-10-11T00:53:26.853Z,1007.27
2017-10-11T00:54:07.394Z,1007.27
2017-10-11T00:54:47.934Z,1007.25
2017-10-11T00:55:28.453Z,1007.23
2017-10-11T00:56:08.980Z,1007.26
2017-10-11T00:56:49.529Z,1007.2
2017-10-11T00:57:30.084Z,1007.21
2017-10-11T00:58:10.597Z,1007.22
2017-10-11T00:58:51.120Z,1007.23
2017-10-11T00:59:31.685Z,1007.2
2017-10-11T01:00:12.236Z,1007.17
2017-10-11T01:00:52.728Z,1007.19
2017-10-11T01:01:33.264Z,1007.21
2017-10-11T01:02:13.803Z,1007.2
2017-10-11T01:02:54.341Z,1007.18
2017-10-11T01:03:34.935Z,1007.16
2017-10-11T01:04:15.492Z,1007.23
2017-10-11T01:04:55.976Z,1007.23
2017-10-11T01:05:36.553Z,1007.16
2017-10-11T01:06:17.053Z,1007.19
2017-10-11T01:06:57.619Z,1007.19
2017-10-11T01:07:38.160Z,1007.22
2017-10-11T01:08:18.651Z,1007.2
2017-10-11T01:08:59.232Z,1007.18
2017-10-11T01:09:39.757Z,1007.25
2017-10-11T01:10:20.267Z,1007.18
2017-10-11T01:11:00.853Z,1007.21
2017-10-11T01:11:41.383Z,1007.24
2017-10-11T01:12:21.915Z,1007.27
2017-10-11T01:13:02.483Z,1007.27
2017-10-11T01:13:43.011Z,1007.25
2017-10-11T01:14:23.532Z,1007.23
2017-10-11T01:15:04.014Z,1007.24
2017-10-11T01:15:44.559Z,1007.28
2017-10-11T01:16:25.137Z,1007.27
2017-10-11T01:17:05.666Z,1007.3
2017-10-11T01:17:46.210Z,1007.3
2017-10-11T01:18:26.800Z,1007.3
2017-10-11T01:19:07.291Z,1007.26
2017-10-11T01:19:47.820Z,1007.3
2017-10-11T01:20:28.385Z,1007.26
2017-10-11T01:21:08.915Z,1007.25
2017-10-11T01:21:49.433Z,1007.28
2017-10-11T01:22:29.957Z,1007.28
2017-10-11T01:23:10.556Z,1007.27
2017-10-11T01:23:51.038Z,1007.25
2017-10-11T01:24:31.583Z,1007.24
2017-10-11T01:25:12.113Z,1007.25
2017-10-11T01:25:52.713Z,1007.27
2017-10-11T01:26:33.254Z,1007.21
2017-10-11T01:27:13.788Z,1007.28
2017-10-11T01:27:54.325Z,1007.26
2017-10-11T01:28:34.894Z,1007.27
2017-10-11T01:29:15.449Z,1007.29
2017-10-11T01:29:55.971Z,1007.33
2017-10-11T01:30:36.529Z,1007.31
2017-10-11T01:31:17.088Z,1007.28
2017-10-11T01:31:57.619Z,1007.29
2017-10-11T01:32:38.134Z,1007.35
2017-10-11T01:33:18.692Z,1007.3
2017-10-11T01:33:59.224Z,1007.32
2017-10-11T01:34:39.814Z,1007.29
2017-10-11T01:35:20.302Z,1007.33
2017-10-11T01:36:00.856Z,1007.3
2017-10-11T01:36:41.395Z,1007.25
2017-10-11T01:37:21.924Z,1007.3
2017-10-11T01:38:02.450Z,1007.29
2017-10-11T01:38:42.942Z,1007.29
2017-10-11T01:39:23.519Z,1007.27
2017-10-11T01:40:04.017Z,1007.25
2017-10-11T01:40:44.524Z,1007.3
2017-10-11T01:41:25.094Z,1007.26
2017-10-11T01:42:05.619Z,1007.27
2017-10-11T01:42:46.152Z,1007.25
2017-10-11T01:43:26.663Z,1007.27
2017-10-11T01:44:07.201Z,1007.33
2017-10-11T01:44:47.752Z,1007.28
2017-10-11T01:45:28.276Z,1007.32
2017-10-11T01:46:08.816Z,1007.3
2017-10-11T01:46:49.321Z,1007.28
2017-10-11T01:47:29.867Z,1007.33
2017-10-11T01:48:10.379Z,1007.32
2017-10-11T01:48:50.964Z,1007.31
2017-10-11T01:49:31.450Z,1007.32
2017-10-11T01:50:12.009Z,1007.29
2017-10-11T01:50:52.536Z,1007.3
2017-10-11T01:51:33.052Z,1007.31
2017-10-11T01:52:13.600Z,1007.32
2017-10-11T01:52:54.079Z,1007.32
2017-10-11T01:53:34.660Z,1007.27
2017-10-11T01:56:03.119Z,1007.29
2017-10-11T01:56:43.653Z,1007.31
2017-10-11T01:57:24.170Z,1007.27
2017-10-11T01:58:04.698Z,1007.29
2017-10-11T01:58:45.260Z,1007.29
2017-10-11T01:59:25.804Z,1007.32
2017-10-11T02:00:06.273Z,1007.3
2017-10-11T02:00:46.789Z,1007.28
2017-10-11T02:01:27.351Z,1007.31
2017-10-11T02:02:07.955Z,1007.3
2017-10-11T02:02:48.471Z,1007.3
2017-10-11T02:03:28.960Z,1007.31
2017-10-11T02:04:09.527Z,1007.3
2017-10-11T02:04:50.037Z,1007.32
2017-10-11T02:05:30.535Z,1007.3
2017-10-11T02:06:11.083Z,1007.31
2017-10-11T02:06:51.637Z,1007.3
2017-10-11T02:07:32.168Z,1007.3
2017-10-11T02:08:12.734Z,1007.28
2017-10-11T02:08:53.266Z,1007.3
2017-10-11T02:09:33.792Z,1007.27
2017-10-11T02:10:14.328Z,1007.33
2017-10-11T02:10:54.863Z,1007.27
2017-10-11T02:11:35.394Z,1007.28
2017-10-11T02:12:15.952Z,1007.28
2017-10-11T02:12:56.422Z,1007.28
2017-10-11T02:13:36.967Z,1007.26
2017-10-11T02:14:17.496Z,1007.3
2017-10-11T02:14:58.047Z,1007.33
2017-10-11T02:15:38.573Z,1007.34
2017-10-11T02:16:19.159Z,1007.3
2017-10-11T02:16:59.664Z,1007.27
2017-10-11T02:17:40.175Z,1007.3
2017-10-11T02:18:20.717Z,1007.28
2017-10-11T02:19:01.265Z,1007.28
2017-10-11T02:19:41.800Z,1007.28
2017-10-11T02:20:22.339Z,1007.26
2017-10-11T02:21:02.885Z,1007.25
2017-10-11T02:21:43.412Z,1007.26
2017-10-11T02:22:23.929Z,1007.28
2017-10-11T02:23:04.463Z,1007.24
2017-10-11T02:23:45.008Z,1007.27
2017-10-11T02:24:25.570Z,1007.24
2017-10-11T02:25:06.065Z,1007.28
2017-10-11T02:25:46.607Z,1007.29
2017-10-11T02:26:27.154Z,1007.21
2017-10-11T02:27:07.714Z,1007.25
2017-10-11T02:27:48.227Z,1007.22
2017-10-11T02:28:28.753Z,1007.25
2017-10-11T02:29:09.298Z,1007.26
2017-10-11T02:29:49.824Z,1007.22
2017-10-11T02:30:31.031Z,1007.31
2017-10-11T02:31:11.597Z,1007.27
2017-10-11T02:31:52.147Z,1007.27
2017-10-11T02:32:32.702Z,1007.26
2017-10-11T02:33:13.245Z,1007.24
2017-10-11T02:33:53.781Z,1007.22
2017-10-11T02:34:34.343Z,1007.26
2017-10-11T02:35:14.865Z,1007.25
2017-10-11T02:35:55.421Z,1007.25
2017-10-11T02:36:35.994Z,1007.24
2017-10-11T02:37:16.506Z,1007.24
2017-10-11T02:37:57.038Z,1007.21
2017-10-11T02:38:37.547Z,1007.23
2017-10-11T02:39:18.069Z,1007.22
2017-10-11T02:39:58.634Z,1007.24
2017-10-11T02:40:39.171Z,1007.22
2017-10-11T02:41:19.684Z,1007.22
2017-10-11T02:42:00.225Z,1007.19
2017-10-11T02:42:40.750Z,1007.24
2017-10-11T02:43:21.293Z,1007.22
2017-10-11T02:44:01.844Z,1007.25
2017-10-11T02:44:42.385Z,1007.22
2017-10-11T02:45:22.935Z,1007.24
2017-10-11T02:46:03.528Z,1007.22
2017-10-11T02:46:43.992Z,1007.26
2017-10-11T02:47:24.501Z,1007.22
2017-10-11T02:49:38.797Z,1007.25
2017-10-11T02:50:19.325Z,1007.25
2017-10-11T02:50:59.875Z,1007.25
2017-10-11T02:51:40.403Z,1007.25
2017-10-11T02:52:20.945Z,1007.23
2017-10-11T02:53:01.432Z,1007.23
2017-10-11T02:53:41.979Z,1007.23
2017-10-11T02:54:22.532Z,1007.29
2017-10-11T02:55:03.053Z,1007.26
2017-10-11T02:55:44.218Z,1007.3
2017-10-11T02:56:24.847Z,1007.3
2017-10-11T02:57:05.350Z,1007.29
2017-10-11T02:57:45.874Z,1007.31
2017-10-11T02:58:26.414Z,1007.32
2017-10-11T02:59:06.966Z,1007.3
2017-10-11T02:59:47.526Z,1007.33
2017-10-11T03:00:28.014Z,1007.35
2017-10-11T03:01:08.565Z,1007.34
2017-10-11T03:01:49.060Z,1007.34
2017-10-11T03:02:29.649Z,1007.33
2017-10-11T03:03:10.981Z,1007.28
2017-10-11T03:03:51.458Z,1007.31
2017-10-11T03:04:31.996Z,1007.31
2017-10-11T03:05:12.529Z,1007.25
2017-10-11T03:05:53.104Z,1007.32
2017-10-11T03:06:33.595Z,1007.3
2017-10-11T03:07:14.192Z,1007.32
2017-10-11T03:07:54.701Z,1007.32
2017-10-11T03:08:35.192Z,1007.3
2017-10-11T03:09:15.798Z,1007.32
2017-10-11T03:09:56.367Z,1007.31
2017-10-11T03:10:36.902Z,1007.28
2017-10-11T03:11:17.480Z,1007.28
2017-10-11T03:11:58.019Z,1007.3
2017-10-11T03:12:38.541Z,1007.31
2017-10-11T03:13:19.104Z,1007.29
2017-10-11T03:13:59.649Z,1007.28
2017-10-11T03:14:40.152Z,1007.25
2017-10-11T03:15:20.706Z,1007.29
2017-10-11T03:16:01.239Z,1007.25
2017-10-11T03:16:41.814Z,1007.27
2017-10-11T03:17:22.332Z,1007.33
2017-10-11T03:18:02.867Z,1007.28
2017-10-11T03:18:43.391Z,1007.29
2017-10-11T03:19:23.948Z,1007.31
2017-10-11T03:20:04.433Z,1007.29
2017-10-11T03:20:45.056Z,1007.33
2017-10-11T03:21:25.568Z,1007.32
2017-10-11T03:22:06.139Z,1007.29
2017-10-11T03:22:46.657Z,1007.31
2017-10-11T03:23:27.237Z,1007.27
2017-10-11T03:24:07.804Z,1007.28
2017-10-11T03:24:48.304Z,1007.27
2017-10-11T03:25:28.911Z,1007.34
2017-10-11T03:26:09.385Z,1007.31
2017-10-11T03:26:49.964Z,1007.34
2017-10-11T03:27:30.491Z,1007.33
2017-10-11T03:28:11.023Z,1007.31
2017-10-11T03:28:51.563Z,1007.33
2017-10-11T03:29:32.122Z,1007.29
2017-10-11T03:30:12.609Z,1007.32
2017-10-11T03:30:53.137Z,1007.36
2017-10-11T03:31:33.668Z,1007.36
2017-10-11T03:32:14.269Z,1007.35
2017-10-11T03:32:54.716Z,1007.35
2017-10-11T03:33:35.264Z,1007.37
2017-10-11T03:34:15.803Z,1007.33
2017-10-11T03:34:56.367Z,1007.36
2017-10-11T03:35:36.838Z,1007.31
2017-10-11T03:36:17.402Z,1007.32
2017-10-11T03:36:57.916Z,1007.32
2017-10-11T03:37:38.489Z,1007.3
2017-10-11T03:38:19.055Z,1007.3
2017-10-11T03:38:59.599Z,1007.29
2017-10-11T03:39:40.089Z,1007.34
2017-10-11T03:40:20.642Z,1007.32
2017-10-11T03:41:01.201Z,1007.33
2017-10-11T03:41:41.715Z,1007.36
2017-10-11T03:42:22.234Z,1007.32
2017-10-11T03:43:02.867Z,1007.36
2017-10-11T03:43:43.329Z,1007.35
2017-10-11T03:44:23.904Z,1007.36
2017-10-11T03:45:04.435Z,1007.31
2017-10-11T03:45:44.969Z,1007.35
2017-10-11T03:46:25.518Z,1007.35
2017-10-11T03:47:06.085Z,1007.34
2017-10-11T03:47:46.558Z,1007.33
2017-10-11T03:48:27.106Z,1007.33
2017-10-11T03:49:07.630Z,1007.32
2017-10-11T03:49:48.135Z,1007.32
2017-10-11T03:50:28.637Z,1007.35
2017-10-11T03:51:09.312Z,1007.35
2017-10-11T03:51:49.784Z,1007.32
2017-10-11T03:52:30.334Z,1007.3
2017-10-11T03:53:10.932Z,1007.28
2017-10-11T03:53:51.420Z,1007.31
2017-10-11T03:54:32.007Z,1007.33
2017-10-11T03:55:12.511Z,1007.29
2017-10-11T03:55:53.108Z,1007.32
2017-10-11T03:56:33.657Z,1007.29
2017-10-11T03:57:14.205Z,1007.33
2017-10-11T03:57:54.789Z,1007.32
2017-10-11T03:58:35.336Z,1007.32
2017-10-11T03:59:15.866Z,1007.28
2017-10-11T03:59:56.361Z,1007.32
2017-10-11T04:00:36.912Z,1007.34
2017-10-11T04:01:17.433Z,1007.33
2017-10-11T04:01:57.998Z,1007.34
2017-10-11T04:02:38.530Z,1007.32
2017-10-11T04:03:19.088Z,1007.3
2017-10-11T04:03:59.604Z,1007.32
2017-10-11T04:04:40.109Z,1007.36
2017-10-11T04:05:20.680Z,1007.37
2017-10-11T04:06:01.245Z,1007.34
2017-10-11T04:06:41.848Z,1007.36
2017-10-11T04:07:22.316Z,1007.39
2017-10-11T04:08:02.864Z,1007.35
2017-10-11T04:08:43.413Z,1007.35
2017-10-11T04:09:23.995Z,1007.35
2017-10-11T04:10:04.529Z,1007.34
2017-10-11T04:10:45.147Z,1007.31
2017-10-11T04:11:25.644Z,1007.35
2017-10-11T04:12:06.192Z,1007.32
2017-10-11T04:12:46.749Z,1007.35
2017-10-11T04:13:27.324Z,1007.33
2017-10-11T04:14:07.901Z,1007.35
2017-10-11T04:14:48.389Z,1007.31
2017-10-11T04:15:28.945Z,1007.28
2017-10-11T04:16:09.472Z,1007.24
2017-10-11T04:16:50.011Z,1007.29
2017-10-11T04:17:30.562Z,1007.29
2017-10-11T04:18:11.119Z,1007.29
2017-10-11T04:18:51.644Z,1007.28
2017-10-11T04:19:32.194Z,1007.31
2017-10-11T04:20:12.768Z,1007.29
2017-10-11T04:20:53.332Z,1007.25
2017-10-11T04:21:33.853Z,1007.31
2017-10-11T04:22:14.418Z,1007.3
2017-10-11T04:22:54.935Z,1007.3
2017-10-11T04:23:35.489Z,1007.29
2017-10-11T04:24:16.030Z,1007.31
2017-10-11T04:24:56.550Z,1007.27
2017-10-11T04:25:37.105Z,1007.29
2017-10-11T04:26:17.639Z,1007.24
2017-10-11T04:26:58.173Z,1007.27
2017-10-11T04:27:38.699Z,1007.31
2017-10-11T04:28:19.275Z,1007.29
2017-10-11T04:28:59.765Z,1007.27
2017-10-11T04:29:40.292Z,1007.29
2017-10-11T04:30:20.844Z,1007.27
2017-10-11T04:31:01.411Z,1007.29
2017-10-11T04:31:42.014Z,1007.28
2017-10-11T04:32:22.539Z,1007.31
2017-10-11T04:33:03.089Z,1007.3
2017-10-11T04:33:43.582Z,1007.32
2017-10-11T04:34:24.146Z,1007.3
2017-10-11T04:35:04.749Z,1007.31
2017-10-11T04:35:45.291Z,1007.33
2017-10-11T04:36:25.823Z,1007.31
2017-10-11T04:37:06.418Z,1007.28
2017-10-11T04:37:47.004Z,1007.31
2017-10-11T04:38:27.535Z,1007.27
2017-10-11T04:39:08.144Z,1007.28
2017-10-11T04:39:48.599Z,1007.28
2017-10-11T04:40:29.164Z,1007.32
2017-10-11T04:41:09.740Z,1007.27
2017-10-11T04:41:50.308Z,1007.28
2017-10-11T04:42:30.907Z,1007.24
2017-10-11T04:43:11.477Z,1007.27
2017-10-11T04:43:52.044Z,1007.25
2017-10-11T04:44:32.562Z,1007.3
2017-10-11T04:45:13.165Z,1007.22
2017-10-11T04:45:53.718Z,1007.28
2017-10-11T04:46:34.232Z,1007.25
2017-10-11T04:47:14.797Z,1007.22
2017-10-11T04:47:55.539Z,1007.24
2017-10-11T04:48:36.343Z,1007.23
2017-10-11T04:49:16.652Z,1007.22
2017-10-11T04:49:57.285Z,1007.24
2017-10-11T04:50:38.053Z,1007.23
2017-10-11T04:51:18.519Z,1007.28
2017-10-11T04:51:59.089Z,1007.25
2017-10-11T04:52:39.646Z,1007.24
2017-10-11T04:53:20.190Z,1007.24
2017-10-11T04:54:00.706Z,1007.24
2017-10-11T04:54:41.287Z,1007.18
2017-10-11T04:55:21.816Z,1007.22
2017-10-11T04:56:02.382Z,1007.19
2017-10-11T04:56:42.928Z,1007.18
2017-10-11T04:57:23.568Z,1007.2
2017-10-11T04:58:04.177Z,1007.2
2017-10-11T04:58:44.692Z,1007.23
2017-10-11T04:59:25.295Z,1007.22
2017-10-11T05:00:05.747Z,1007.15
2017-10-11T05:00:46.266Z,1007.16
2017-10-11T05:01:26.803Z,1007.2
2017-10-11T05:02:07.354Z,1007.2
2017-10-11T05:02:47.860Z,1007.19
2017-10-11T05:03:28.496Z,1007.19
2017-10-11T05:04:09.077Z,1007.2
2017-10-11T05:04:49.568Z,1007.23
2017-10-11T05:05:30.316Z,1007.19
2017-10-11T05:06:10.648Z,1007.2
2017-10-11T05:06:51.223Z,1007.19
2017-10-11T05:07:31.808Z,1007.18
2017-10-11T05:08:12.324Z,1007.16
2017-10-11T05:08:52.951Z,1007.17
2017-10-11T05:09:33.475Z,1007.15
2017-10-11T05:10:14.158Z,1007.19
2017-10-11T05:10:54.743Z,1007.18
2017-10-11T05:11:35.292Z,1007.19
2017-10-11T05:12:16.649Z,1007.18
2017-10-11T05:12:57.220Z,1007.14
2017-10-11T05:13:37.794Z,1007.17
2017-10-11T05:14:18.331Z,1007.18
2017-10-11T05:14:58.883Z,1007.19
2017-10-11T05:15:39.811Z,1007.16
2017-10-11T05:16:20.426Z,1007.17
2017-10-11T05:17:00.983Z,1007.17
2017-10-11T05:17:41.552Z,1007.19
2017-10-11T05:18:22.134Z,1007.21
2017-10-11T05:19:02.661Z,1007.17
2017-10-11T05:19:44.111Z,1007.14
2017-10-11T05:20:26.016Z,1007.18
2017-10-11T05:21:08.934Z,1007.21
2017-10-11T05:21:49.513Z,1007.16
2017-10-11T05:22:31.682Z,1007.13
2017-10-11T05:23:13.302Z,1007.14
2017-10-11T05:23:53.814Z,1007.18
2017-10-11T05:24:35.771Z,1007.15
2017-10-11T05:25:17.231Z,1007.11
2017-10-11T05:25:57.924Z,1007.12
2017-10-11T05:26:38.462Z,1007.11
2017-10-11T05:27:19.015Z,1007.12
2017-10-11T05:27:59.789Z,1007.13
2017-10-11T05:28:40.456Z,1007.15
2017-10-11T05:29:21.035Z,1007.13
2017-10-11T05:30:01.513Z,1007.13
2017-10-11T05:30:42.045Z,1007.17
2017-10-11T05:31:22.591Z,1007.15
2017-10-11T05:32:03.089Z,1007.18
2017-10-11T05:32:43.626Z,1007.19
2017-10-11T05:33:24.103Z,1007.13
2017-10-11T05:34:04.683Z,1007.15
2017-10-11T05:34:45.892Z,1007.14
2017-10-11T05:35:27.236Z,1007.2
2017-10-11T05:36:08.055Z,1007.18
2017-10-11T05:36:49.366Z,1007.19
2017-10-11T05:37:29.923Z,1007.21
2017-10-11T05:38:10.603Z,1007.22
2017-10-11T05:38:51.150Z,1007.19
2017-10-11T05:39:31.610Z,1007.24
2017-10-11T05:40:12.174Z,1007.21
2017-10-11T05:40:53.049Z,1007.27
2017-10-11T05:41:33.318Z,1007.24
2017-10-11T05:42:14.089Z,1007.25
2017-10-11T05:42:54.642Z,1007.27
2017-10-11T05:43:35.118Z,1007.27
2017-10-11T05:44:15.734Z,1007.28
2017-10-11T05:44:56.287Z,1007.29
2017-10-11T05:45:36.980Z,1007.31
2017-10-11T05:46:17.511Z,1007.29
2017-10-11T05:46:58.048Z,1007.29
2017-10-11T05:47:38.589Z,1007.28
2017-10-11T05:48:19.107Z,1007.32
2017-10-11T05:48:59.687Z,1007.3
2017-10-11T05:49:40.175Z,1007.31
2017-10-11T05:50:20.790Z,1007.34
2017-10-11T05:51:01.309Z,1007.35
2017-10-11T05:51:41.821Z,1007.32
2017-10-11T05:52:22.353Z,1007.37
2017-10-11T05:53:02.907Z,1007.35
2017-10-11T05:53:43.443Z,1007.33
2017-10-11T05:54:24.043Z,1007.31
2017-10-11T05:55:04.608Z,1007.29
2017-10-11T05:55:45.129Z,1007.3
2017-10-11T05:56:26.581Z,1007.29
2017-10-11T05:57:07.142Z,1007.33
2017-10-11T05:57:47.613Z,1007.32
2017-10-11T05:58:28.193Z,1007.32
2017-10-11T05:59:08.712Z,1007.35
2017-10-11T05:59:49.368Z,1007.4
2017-10-11T06:00:29.962Z,1007.34
2017-10-11T06:01:10.458Z,1007.37
2017-10-11T06:01:50.987Z,1007.37
2017-10-11T06:02:31.474Z,1007.36
2017-10-11T06:03:12.313Z,1007.4
2017-10-11T06:03:52.862Z,1007.38
2017-10-11T06:04:33.374Z,1007.38
2017-10-11T06:05:14.181Z,1007.35
2017-10-11T06:05:54.683Z,1007.39
2017-10-11T06:06:35.192Z,1007.4
2017-10-11T06:07:15.735Z,1007.45
2017-10-11T06:07:56.270Z,1007.38
2017-10-11T06:08:36.840Z,1007.41
2017-10-11T06:09:17.490Z,1007.39
2017-10-11T06:09:58.222Z,1007.37
2017-10-11T06:10:38.814Z,1007.4
2017-10-11T06:11:19.446Z,1007.43
2017-10-11T06:12:00.009Z,1007.42
2017-10-11T06:12:40.560Z,1007.37
2017-10-11T06:13:21.105Z,1007.44
2017-10-11T06:14:01.709Z,1007.41
2017-10-11T06:14:42.231Z,1007.43
2017-10-11T06:15:22.689Z,1007.47
2017-10-11T06:16:03.265Z,1007.47
2017-10-11T06:16:43.861Z,1007.44
2017-10-11T06:17:24.375Z,1007.42
2017-10-11T06:18:04.942Z,1007.45
2017-10-11T06:18:45.453Z,1007.43
2017-10-11T06:19:26.100Z,1007.42
2017-10-11T06:20:06.636Z,1007.39
2017-10-11T06:20:47.154Z,1007.42
2017-10-11T06:21:27.713Z,1007.46
2017-10-11T06:22:08.287Z,1007.41
2017-10-11T06:22:48.847Z,1007.43
2017-10-11T06:23:29.423Z,1007.45
2017-10-11T06:24:10.073Z,1007.44
2017-10-11T06:24:50.611Z,1007.41
2017-10-11T06:25:31.199Z,1007.46
2017-10-11T06:26:11.723Z,1007.43
2017-10-11T06:26:52.258Z,1007.47
2017-10-11T06:27:32.803Z,1007.49
2017-10-11T06:28:13.356Z,1007.5
2017-10-11T06:28:53.870Z,1007.52
2017-10-11T06:29:35.312Z,1007.5
2017-10-11T06:30:14.950Z,1007.48
2017-10-11T06:30:55.494Z,1007.51
2017-10-11T06:31:36.040Z,1007.51
2017-10-11T06:32:16.552Z,1007.53
2017-10-11T06:32:57.142Z,1007.53
2017-10-11T06:33:37.666Z,1007.53
2017-10-11T06:34:18.211Z,1007.51
2017-10-11T06:34:59.315Z,1007.56
2017-10-11T06:35:39.278Z,1007.62
2017-10-11T06:36:19.895Z,1007.58
2017-10-11T06:37:00.394Z,1007.55
2017-10-11T06:37:40.896Z,1007.59
2017-10-11T06:38:21.448Z,1007.58
2017-10-11T06:39:02.012Z,1007.58
2017-10-11T06:39:42.534Z,1007.51
2017-10-11T06:40:23.051Z,1007.56
2017-10-11T06:41:03.597Z,1007.5
2017-10-11T06:41:44.138Z,1007.56
2017-10-11T06:42:24.704Z,1007.55
2017-10-11T06:43:05.238Z,1007.54
2017-10-11T06:43:45.828Z,1007.52
2017-10-11T06:44:26.313Z,1007.56
2017-10-11T06:45:06.969Z,1007.56
2017-10-11T06:45:47.502Z,1007.55
2017-10-11T06:46:28.057Z,1007.54
2017-10-11T06:47:08.549Z,1007.56
2017-10-11T06:47:49.095Z,1007.53
2017-10-11T06:48:29.639Z,1007.49
2017-10-11T06:49:10.220Z,1007.51
2017-10-11T06:49:50.771Z,1007.56
2017-10-11T06:50:31.396Z,1007.56
2017-10-11T06:51:11.990Z,1007.58
2017-10-11T06:51:52.522Z,1007.54
2017-10-11T06:52:33.104Z,1007.51
2017-10-11T06:53:13.575Z,1007.55
2017-10-11T06:53:54.145Z,1007.56
2017-10-11T06:54:34.641Z,1007.54
2017-10-11T06:55:15.204Z,1007.53
2017-10-11T06:55:55.766Z,1007.53
2017-10-11T06:56:36.352Z,1007.58
2017-10-11T06:57:16.875Z,1007.61
2017-10-11T06:57:57.386Z,1007.57
2017-10-11T06:58:37.889Z,1007.51
2017-10-11T06:59:18.454Z,1007.54
2017-10-11T06:59:58.970Z,1007.6
2017-10-11T07:00:39.595Z,1007.57
2017-10-11T07:01:20.126Z,1007.56
2017-10-11T07:02:00.652Z,1007.59
2017-10-11T07:02:41.159Z,1007.62
2017-10-11T07:03:21.740Z,1007.58
2017-10-11T07:04:02.299Z,1007.63
2017-10-11T07:04:42.879Z,1007.61
2017-10-11T07:05:23.350Z,1007.58
2017-10-11T07:06:03.884Z,1007.61
2017-10-11T07:06:44.462Z,1007.59
2017-10-11T07:07:25.006Z,1007.63
2017-10-11T07:08:05.461Z,1007.61
2017-10-11T07:08:46.081Z,1007.63
2017-10-11T07:09:26.589Z,1007.6
2017-10-11T07:10:07.164Z,1007.69
2017-10-11T07:10:47.709Z,1007.59
2017-10-11T07:11:28.241Z,1007.65
2017-10-11T07:12:08.805Z,1007.61
2017-10-11T07:12:49.380Z,1007.59
2017-10-11T07:13:29.921Z,1007.61
2017-10-11T07:14:10.473Z,1007.64
2017-10-11T07:14:51.007Z,1007.61
2017-10-11T07:15:31.507Z,1007.6
2017-10-11T07:16:12.068Z,1007.56
2017-10-11T07:16:52.579Z,1007.59
2017-10-11T07:17:33.156Z,1007.58
2017-10-11T07:18:13.638Z,1007.59
2017-10-11T07:18:54.225Z,1007.62
2017-10-11T07:19:34.826Z,1007.6
2017-10-11T07:20:15.518Z,1007.6
2017-10-11T07:20:56.084Z,1007.6
2017-10-11T07:21:36.723Z,1007.67
2017-10-11T07:22:17.273Z,1007.61
2017-10-11T07:22:57.819Z,1007.67
2017-10-11T07:23:38.391Z,1007.68
2017-10-11T07:24:18.943Z,1007.69
2017-10-11T07:24:59.466Z,1007.67
2017-10-11T07:25:39.995Z,1007.66
2017-10-11T07:26:20.548Z,1007.68
2017-10-11T07:27:01.119Z,1007.67
2017-10-11T07:27:41.706Z,1007.65
2017-10-11T07:28:22.247Z,1007.72
2017-10-11T07:29:02.806Z,1007.69
2017-10-11T07:29:43.368Z,1007.69
2017-10-11T07:30:23.909Z,1007.73
2017-10-11T07:31:04.451Z,1007.7
2017-10-11T07:31:44.993Z,1007.7
2017-10-11T07:32:25.514Z,1007.71
2017-10-11T07:33:06.031Z,1007.69
2017-10-11T07:33:46.552Z,1007.67
2017-10-11T07:34:27.107Z,1007.67
2017-10-11T07:35:07.641Z,1007.7
2017-10-11T07:35:48.187Z,1007.73
2017-10-11T07:36:28.789Z,1007.7
2017-10-11T07:37:09.345Z,1007.71
2017-10-11T07:37:49.868Z,1007.72
2017-10-11T07:38:30.384Z,1007.74
2017-10-11T07:39:10.955Z,1007.73
2017-10-11T07:39:51.473Z,1007.73
2017-10-11T07:40:32.021Z,1007.75
2017-10-11T07:41:12.573Z,1007.74
2017-10-11T07:41:53.096Z,1007.75
2017-10-11T07:42:33.652Z,1007.71
2017-10-11T07:43:14.207Z,1007.76
2017-10-11T07:43:54.730Z,1007.7
2017-10-11T07:44:35.303Z,1007.78
2017-10-11T07:45:15.842Z,1007.71
2017-10-11T07:45:56.373Z,1007.81
2017-10-11T07:46:36.906Z,1007.77
2017-10-11T07:47:17.460Z,1007.76
2017-10-11T07:47:58.034Z,1007.76
2017-10-11T07:48:38.552Z,1007.73
2017-10-11T07:49:19.079Z,1007.76
2017-10-11T07:49:59.660Z,1007.77
2017-10-11T07:50:40.214Z,1007.81
2017-10-11T07:51:20.758Z,1007.82
2017-10-11T07:52:01.341Z,1007.82
2017-10-11T07:52:41.896Z,1007.82
2017-10-11T07:53:22.439Z,1007.81
2017-10-11T07:54:03.019Z,1007.77
2017-10-11T07:54:43.537Z,1007.81
2017-10-11T07:55:24.052Z,1007.74
2017-10-11T07:56:04.629Z,1007.79
2017-10-11T07:56:45.187Z,1007.72
2017-10-11T07:57:25.734Z,1007.77
2017-10-11T07:58:06.241Z,1007.79
2017-10-11T07:58:46.861Z,1007.77
2017-10-11T07:59:27.395Z,1007.77
2017-10-11T08:00:07.956Z,1007.82
2017-10-11T08:00:48.503Z,1007.77
2017-10-11T08:01:29.023Z,1007.75
2017-10-11T08:02:09.576Z,1007.72
2017-10-11T08:02:50.105Z,1007.71
2017-10-11T08:03:30.644Z,1007.77
2017-10-11T08:04:11.193Z,1007.75
2017-10-11T08:04:51.746Z,1007.75
2017-10-11T08:05:32.363Z,1007.77
2017-10-11T08:06:12.827Z,1007.82
2017-10-11T08:06:53.372Z,1007.78
2017-10-11T08:07:33.911Z,1007.76
2017-10-11T08:08:14.515Z,1007.83
2017-10-11T08:08:55.027Z,1007.75
2017-10-11T08:09:35.622Z,1007.79
2017-10-11T08:10:16.162Z,1007.76
2017-10-11T08:10:56.692Z,1007.79
2017-10-11T08:11:37.237Z,1007.81
2017-10-11T08:12:17.800Z,1007.8
2017-10-11T08:12:58.347Z,1007.82
2017-10-11T08:13:38.889Z,1007.81
2017-10-11T08:14:19.459Z,1007.79
2017-10-11T08:14:59.995Z,1007.76
2017-10-11T08:15:40.553Z,1007.8